KFSI/FSI METAR and TAF weather

Enter ICAO airport designator
Station Type Date Time Source
KFSI METAR 2020/09/21 06:56 UTC NOAA

KFSI 210656Z AUTO 03003KT 10SM CLR 15/13 A3016 RMK AO2 SLP208 T01460131 PNO $


Station Type Date Time Source
KFSI Decoded METAR 2020/09/21 06:56 UTC NOAA

Fort Sill, OK, United States (KFSI) 34-36N 098-24W 360M
Sep 21, 2020 - 02:56 AM EDT / 2020.09.21 0656 UTC
Wind: from the NNE (030 degrees) at 3 MPH (3 KT):0
Visibility: 10 mile(s):0
Sky conditions: clear
Temperature: 58.3 F (14.6 C)
Dew Point: 55.6 F (13.1 C)
Relative Humidity: 90%
Pressure (altimeter): 30.16 in. Hg (1021 hPa)
ob: KFSI 210656Z AUTO 03003KT 10SM CLR 15/13 A3016 RMK AO2 SLP208 T01460131 PNO
cycle: 7

Station Type Date Time Source
KFSI TAF 2020/09/18 21:15 UTC NOAA

TAF KFSI 182100Z 1821/2003 06012KT 9999 SKC QNH3010INS TX28/1921Z TN16/1912Z LAST NO
AMDS AFT 1901 NEXT 2113

Example: see airport list